sensor_id;sensor_type;location;lat;lon;timestamp;pressure;altitude;pressure_sealevel;temperature;humidity
6387;BME280;3226;42.162;24.756;2022-12-18T00:01:30;100338.06;;;8.83;100.00
6387;BME280;3226;42.162;24.756;2022-12-18T00:04:01;100335.72;;;8.93;100.00
6387;BME280;3226;42.162;24.756;2022-12-18T00:06:30;100329.00;;;8.89;100.00
6387;BME280;3226;42.162;24.756;2022-12-18T00:09:02;100319.91;;;8.82;100.00
6387;BME280;3226;42.162;24.756;2022-12-18T00:11:31;100335.56;;;8.82;100.00
6387;BME280;3226;42.162;24.756;2022-12-18T00:13:59;100339.53;;;8.75;100.00
6387;BME280;3226;42.162;24.756;2022-12-18T00:16:28;100354.41;;;8.87;100.00
6387;BME280;3226;42.162;24.756;2022-12-18T00:18:57;100361.06;;;9.06;100.00
6387;BME280;3226;42.162;24.756;2022-12-18T00:21:26;100360.66;;;9.12;100.00
6387;BME280;3226;42.162;24.756;2022-12-18T00:23:55;100367.03;;;9.08;100.00
6387;BME280;3226;42.162;24.756;2022-12-18T00:26:26;100378.22;;;9.10;100.00
6387;BME280;3226;42.162;24.756;2022-12-18T00:28:58;100371.16;;;8.97;100.00
6387;BME280;3226;42.162;24.756;2022-12-18T00:31:26;100370.75;;;8.76;100.00
6387;BME280;3226;42.162;24.756;2022-12-18T00:33:54;100381.69;;;8.68;100.00
6387;BME280;3226;42.162;24.756;2022-12-18T00:36:24;100377.56;;;8.79;100.00
6387;BME280;3226;42.162;24.756;2022-12-18T00:38:53;100378.63;;;8.89;100.00
6387;BME280;3226;42.162;24.756;2022-12-18T00:41:24;100389.44;;;8.97;100.00
6387;BME280;3226;42.162;24.756;2022-12-18T00:44:11;100390.63;;;9.06;100.00
6387;BME280;3226;42.162;24.756;2022-12-18T00:46:40;100390.81;;;8.61;100.00
6387;BME280;3226;42.162;24.756;2022-12-18T00:49:08;100406.97;;;8.68;100.00
6387;BME280;3226;42.162;24.756;2022-12-18T00:51:36;100404.97;;;8.86;100.00
6387;BME280;3226;42.162;24.756;2022-12-18T00:54:04;100410.00;;;8.89;100.00
6387;BME280;3226;42.162;24.756;2022-12-18T00:56:35;100400.53;;;8.74;100.00
6387;BME280;3226;42.162;24.756;2022-12-18T00:59:14;100409.16;;;8.89;100.00
6387;BME280;3226;42.162;24.756;2022-12-18T01:01:42;100403.09;;;8.88;100.00
6387;BME280;3226;42.162;24.756;2022-12-18T01:04:11;100405.81;;;8.87;100.00
6387;BME280;3226;42.162;24.756;2022-12-18T01:06:39;100389.69;;;8.80;100.00
6387;BME280;3226;42.162;24.756;2022-12-18T01:09:07;100394.63;;;8.85;100.00
6387;BME280;3226;42.162;24.756;2022-12-18T01:11:37;100403.88;;;8.76;100.00
6387;BME280;3226;42.162;24.756;2022-12-18T01:14:05;100407.63;;;8.72;100.00
6387;BME280;3226;42.162;24.756;2022-12-18T01:16:33;100407.06;;;8.66;100.00
6387;BME280;3226;42.162;24.756;2022-12-18T01:19:02;100395.19;;;8.75;100.00
6387;BME280;3226;42.162;24.756;2022-12-18T01:21:30;100390.41;;;8.82;100.00
6387;BME280;3226;42.162;24.756;2022-12-18T01:23:57;100391.25;;;8.82;100.00
6387;BME280;3226;42.162;24.756;2022-12-18T01:26:26;100392.84;;;8.85;100.00
6387;BME280;3226;42.162;24.756;2022-12-18T01:28:57;100400.63;;;8.58;100.00
6387;BME280;3226;42.162;24.756;2022-12-18T01:31:27;100403.59;;;8.66;100.00
6387;BME280;3226;42.162;24.756;2022-12-18T01:33:55;100398.31;;;8.67;100.00
6387;BME280;3226;42.162;24.756;2022-12-18T01:36:26;100373.13;;;8.52;100.00
6387;BME280;3226;42.162;24.756;2022-12-18T01:38:55;100383.50;;;8.53;100.00
6387;BME280;3226;42.162;24.756;2022-12-18T01:41:26;100392.69;;;8.74;100.00
6387;BME280;3226;42.162;24.756;2022-12-18T01:47:36;100397.19;;;8.57;100.00
6387;BME280;3226;42.162;24.756;2022-12-18T01:50:08;100387.00;;;8.67;100.00
6387;BME280;3226;42.162;24.756;2022-12-18T01:52:37;100389.16;;;8.46;100.00
6387;BME280;3226;42.162;24.756;2022-12-18T01:55:07;100400.25;;;8.35;100.00
6387;BME280;3226;42.162;24.756;2022-12-18T01:57:36;100399.88;;;8.41;100.00
6387;BME280;3226;42.162;24.756;2022-12-18T02:00:08;100396.44;;;8.55;100.00
6387;BME280;3226;42.162;24.756;2022-12-18T02:02:38;100400.72;;;8.56;100.00
6387;BME280;3226;42.162;24.756;2022-12-18T02:05:08;100413.59;;;8.59;100.00
6387;BME280;3226;42.162;24.756;2022-12-18T02:07:42;100411.16;;;8.71;100.00
6387;BME280;3226;42.162;24.756;2022-12-18T02:10:16;100403.31;;;8.71;100.00
6387;BME280;3226;42.162;24.756;2022-12-18T02:12:51;100405.56;;;8.62;100.00
6387;BME280;3226;42.162;24.756;2022-12-18T02:15:26;100410.78;;;8.77;100.00
6387;BME280;3226;42.162;24.756;2022-12-18T02:18:04;100415.69;;;8.81;100.00
6387;BME280;3226;42.162;24.756;2022-12-18T02:20:37;100414.88;;;8.81;100.00
6387;BME280;3226;42.162;24.756;2022-12-18T02:23:19;100424.19;;;8.85;100.00
6387;BME280;3226;42.162;24.756;2022-12-18T02:26:05;100423.47;;;8.68;100.00
6387;BME280;3226;42.162;24.756;2022-12-18T02:28:38;100433.34;;;8.78;100.00
6387;BME280;3226;42.162;24.756;2022-12-18T02:31:11;100430.72;;;8.78;100.00
6387;BME280;3226;42.162;24.756;2022-12-18T02:33:40;100426.09;;;8.54;100.00
6387;BME280;3226;42.162;24.756;2022-12-18T02:36:10;100429.63;;;8.38;100.00
6387;BME280;3226;42.162;24.756;2022-12-18T02:38:41;100420.97;;;8.52;100.00
6387;BME280;3226;42.162;24.756;2022-12-18T02:41:11;100408.94;;;8.50;100.00
6387;BME280;3226;42.162;24.756;2022-12-18T02:43:41;100410.78;;;8.33;100.00
6387;BME280;3226;42.162;24.756;2022-12-18T02:46:28;100405.94;;;8.27;100.00
6387;BME280;3226;42.162;24.756;2022-12-18T02:49:03;100414.41;;;8.45;100.00
6387;BME280;3226;42.162;24.756;2022-12-18T02:51:40;100417.13;;;8.58;100.00
6387;BME280;3226;42.162;24.756;2022-12-18T02:54:19;100417.59;;;8.65;100.00
6387;BME280;3226;42.162;24.756;2022-12-18T02:56:52;100414.50;;;8.73;100.00
6387;BME280;3226;42.162;24.756;2022-12-18T02:59:26;100403.41;;;8.69;100.00
6387;BME280;3226;42.162;24.756;2022-12-18T03:02:00;100424.09;;;8.87;100.00
6387;BME280;3226;42.162;24.756;2022-12-18T03:04:35;100416.38;;;8.71;100.00
6387;BME280;3226;42.162;24.756;2022-12-18T03:07:11;100424.38;;;8.82;100.00
6387;BME280;3226;42.162;24.756;2022-12-18T03:09:47;100429.88;;;8.92;100.00
6387;BME280;3226;42.162;24.756;2022-12-18T03:12:20;100425.19;;;8.82;100.00
6387;BME280;3226;42.162;24.756;2022-12-18T03:14:56;100419.94;;;8.70;100.00
6387;BME280;3226;42.162;24.756;2022-12-18T03:17:27;100432.06;;;8.71;100.00
6387;BME280;3226;42.162;24.756;2022-12-18T03:20:01;100427.97;;;8.52;100.00
6387;BME280;3226;42.162;24.756;2022-12-18T03:22:32;100433.53;;;8.60;100.00
6387;BME280;3226;42.162;24.756;2022-12-18T03:25:04;100433.53;;;8.75;100.00
6387;BME280;3226;42.162;24.756;2022-12-18T03:27:37;100433.22;;;8.94;100.00
6387;BME280;3226;42.162;24.756;2022-12-18T03:30:09;100426.50;;;8.90;100.00
6387;BME280;3226;42.162;24.756;2022-12-18T03:32:42;100431.63;;;8.91;100.00
6387;BME280;3226;42.162;24.756;2022-12-18T03:35:13;100430.59;;;8.94;100.00
6387;BME280;3226;42.162;24.756;2022-12-18T03:37:44;100435.81;;;8.94;100.00
6387;BME280;3226;42.162;24.756;2022-12-18T03:40:12;100439.38;;;8.93;100.00
6387;BME280;3226;42.162;24.756;2022-12-18T03:42:46;100444.28;;;8.97;100.00
6387;BME280;3226;42.162;24.756;2022-12-18T03:45:21;100453.38;;;8.92;100.00
6387;BME280;3226;42.162;24.756;2022-12-18T03:47:58;100459.25;;;8.81;100.00
6387;BME280;3226;42.162;24.756;2022-12-18T03:50:36;100456.06;;;8.90;100.00
6387;BME280;3226;42.162;24.756;2022-12-18T03:53:11;100472.09;;;8.99;100.00
6387;BME280;3226;42.162;24.756;2022-12-18T03:55:42;100465.78;;;9.03;100.00
6387;BME280;3226;42.162;24.756;2022-12-18T03:58:13;100452.63;;;8.75;100.00
6387;BME280;3226;42.162;24.756;2022-12-18T04:00:44;100471.47;;;8.95;100.00
6387;BME280;3226;42.162;24.756;2022-12-18T04:03:13;100476.03;;;9.06;100.00
6387;BME280;3226;42.162;24.756;2022-12-18T04:05:43;100478.25;;;9.12;100.00
6387;BME280;3226;42.162;24.756;2022-12-18T04:08:12;100475.09;;;9.07;100.00
6387;BME280;3226;42.162;24.756;2022-12-18T04:10:40;100461.66;;;8.99;100.00
6387;BME280;3226;42.162;24.756;2022-12-18T04:13:08;100479.56;;;9.05;100.00
6387;BME280;3226;42.162;24.756;2022-12-18T04:15:38;100485.63;;;9.05;100.00
6387;BME280;3226;42.162;24.756;2022-12-18T04:18:07;100483.47;;;8.97;100.00
6387;BME280;3226;42.162;24.756;2022-12-18T04:20:35;100479.56;;;8.90;100.00
6387;BME280;3226;42.162;24.756;2022-12-18T04:23:03;100464.22;;;8.71;100.00
6387;BME280;3226;42.162;24.756;2022-12-18T04:25:31;100489.00;;;8.78;100.00
6387;BME280;3226;42.162;24.756;2022-12-18T04:27:59;100484.47;;;8.67;100.00
6387;BME280;3226;42.162;24.756;2022-12-18T04:30:26;100500.13;;;8.82;100.00
6387;BME280;3226;42.162;24.756;2022-12-18T04:32:56;100492.16;;;8.83;100.00
6387;BME280;3226;42.162;24.756;2022-12-18T04:35:24;100483.25;;;8.73;100.00
6387;BME280;3226;42.162;24.756;2022-12-18T04:37:52;100499.75;;;8.74;100.00
6387;BME280;3226;42.162;24.756;2022-12-18T04:40:20;100475.41;;;8.59;100.00
6387;BME280;3226;42.162;24.756;2022-12-18T04:42:48;100497.25;;;8.58;100.00
6387;BME280;3226;42.162;24.756;2022-12-18T04:45:16;100495.09;;;8.50;100.00
6387;BME280;3226;42.162;24.756;2022-12-18T04:47:44;100496.50;;;8.56;100.00
6387;BME280;3226;42.162;24.756;2022-12-18T04:50:13;100494.50;;;8.45;100.00
6387;BME280;3226;42.162;24.756;2022-12-18T04:52:41;100503.34;;;8.42;100.00
6387;BME280;3226;42.162;24.756;2022-12-18T04:55:09;100499.00;;;8.57;100.00
6387;BME280;3226;42.162;24.756;2022-12-18T04:57:37;100511.72;;;8.47;100.00
6387;BME280;3226;42.162;24.756;2022-12-18T05:00:06;100515.38;;;8.45;100.00
6387;BME280;3226;42.162;24.756;2022-12-18T05:02:34;100523.78;;;8.35;100.00
6387;BME280;3226;42.162;24.756;2022-12-18T05:05:03;100533.09;;;8.39;100.00
6387;BME280;3226;42.162;24.756;2022-12-18T05:07:32;100536.50;;;8.25;100.00
6387;BME280;3226;42.162;24.756;2022-12-18T05:10:00;100538.84;;;8.30;100.00
6387;BME280;3226;42.162;24.756;2022-12-18T05:12:28;100540.59;;;8.15;100.00
6387;BME280;3226;42.162;24.756;2022-12-18T05:14:56;100542.72;;;8.08;100.00
6387;BME280;3226;42.162;24.756;2022-12-18T05:17:24;100550.66;;;7.91;100.00
6387;BME280;3226;42.162;24.756;2022-12-18T05:19:52;100555.63;;;7.95;100.00
6387;BME280;3226;42.162;24.756;2022-12-18T05:22:20;100563.19;;;8.00;100.00
6387;BME280;3226;42.162;24.756;2022-12-18T05:24:49;100556.13;;;8.02;100.00
6387;BME280;3226;42.162;24.756;2022-12-18T05:27:17;100560.53;;;8.16;100.00
6387;BME280;3226;42.162;24.756;2022-12-18T05:29:47;100574.09;;;8.07;100.00
6387;BME280;3226;42.162;24.756;2022-12-18T05:32:15;100576.72;;;7.91;100.00
6387;BME280;3226;42.162;24.756;2022-12-18T05:34:42;100586.22;;;8.08;100.00
6387;BME280;3226;42.162;24.756;2022-12-18T05:37:10;100595.09;;;8.20;99.43
6387;BME280;3226;42.162;24.756;2022-12-18T05:39:38;100591.09;;;8.14;100.00
6387;BME280;3226;42.162;24.756;2022-12-18T05:42:08;100591.88;;;8.31;99.01
6387;BME280;3226;42.162;24.756;2022-12-18T05:44:36;100596.59;;;8.24;98.47
6387;BME280;3226;42.162;24.756;2022-12-18T05:47:04;100600.16;;;8.23;98.74
6387;BME280;3226;42.162;24.756;2022-12-18T05:49:32;100607.91;;;8.24;97.58
6387;BME280;3226;42.162;24.756;2022-12-18T05:52:00;100611.34;;;8.25;97.87
6387;BME280;3226;42.162;24.756;2022-12-18T05:54:28;100611.25;;;8.27;97.12
6387;BME280;3226;42.162;24.756;2022-12-18T05:56:56;100600.50;;;8.17;95.48
6387;BME280;3226;42.162;24.756;2022-12-18T05:59:26;100610.91;;;8.33;95.39
6387;BME280;3226;42.162;24.756;2022-12-18T06:01:54;100617.72;;;8.35;95.06
6387;BME280;3226;42.162;24.756;2022-12-18T06:04:22;100616.13;;;8.33;93.80
6387;BME280;3226;42.162;24.756;2022-12-18T06:06:50;100622.22;;;8.48;93.24
6387;BME280;3226;42.162;24.756;2022-12-18T06:09:18;100624.91;;;8.16;92.85
6387;BME280;3226;42.162;24.756;2022-12-18T06:11:46;100619.72;;;8.00;93.53
6387;BME280;3226;42.162;24.756;2022-12-18T06:14:14;100617.47;;;7.93;94.81
6387;BME280;3226;42.162;24.756;2022-12-18T06:16:45;100626.84;;;8.12;95.32
6387;BME280;3226;42.162;24.756;2022-12-18T06:19:15;100618.03;;;8.15;95.22
6387;BME280;3226;42.162;24.756;2022-12-18T06:21:43;100635.63;;;8.42;94.96
6387;BME280;3226;42.162;24.756;2022-12-18T06:24:11;100638.94;;;8.29;95.25
6387;BME280;3226;42.162;24.756;2022-12-18T06:26:39;100647.47;;;8.47;95.20
6387;BME280;3226;42.162;24.756;2022-12-18T06:29:07;100652.31;;;8.39;94.26
6387;BME280;3226;42.162;24.756;2022-12-18T06:31:35;100651.69;;;8.66;93.23
6387;BME280;3226;42.162;24.756;2022-12-18T06:34:05;100652.81;;;8.46;94.13
6387;BME280;3226;42.162;24.756;2022-12-18T06:36:33;100659.56;;;8.50;93.57
6387;BME280;3226;42.162;24.756;2022-12-18T06:39:01;100670.50;;;8.41;93.00
6387;BME280;3226;42.162;24.756;2022-12-18T06:41:29;100673.66;;;8.31;92.62
6387;BME280;3226;42.162;24.756;2022-12-18T06:43:57;100678.97;;;8.60;92.99
6387;BME280;3226;42.162;24.756;2022-12-18T06:46:26;100680.44;;;8.50;91.84
6387;BME280;3226;42.162;24.756;2022-12-18T06:48:53;100681.88;;;8.56;92.86
6387;BME280;3226;42.162;24.756;2022-12-18T06:51:25;100687.72;;;8.59;92.10
6387;BME280;3226;42.162;24.756;2022-12-18T06:53:53;100694.41;;;8.33;91.08
6387;BME280;3226;42.162;24.756;2022-12-18T06:56:21;100688.78;;;8.41;91.72
6387;BME280;3226;42.162;24.756;2022-12-18T06:58:49;100700.22;;;8.54;92.05
6387;BME280;3226;42.162;24.756;2022-12-18T07:01:17;100703.34;;;8.45;91.98
6387;BME280;3226;42.162;24.756;2022-12-18T07:03:45;100706.66;;;8.32;91.57
6387;BME280;3226;42.162;24.756;2022-12-18T07:06:15;100704.63;;;8.21;91.09
6387;BME280;3226;42.162;24.756;2022-12-18T07:08:45;100705.03;;;8.30;91.67
6387;BME280;3226;42.162;24.756;2022-12-18T07:11:13;100706.38;;;8.21;92.15
6387;BME280;3226;42.162;24.756;2022-12-18T07:13:42;100713.88;;;8.27;93.92
6387;BME280;3226;42.162;24.756;2022-12-18T07:16:12;100717.34;;;8.28;93.91
6387;BME280;3226;42.162;24.756;2022-12-18T07:18:49;100718.50;;;8.22;95.17
6387;BME280;3226;42.162;24.756;2022-12-18T07:21:18;100723.38;;;8.28;96.81
6387;BME280;3226;42.162;24.756;2022-12-18T07:23:48;100706.78;;;8.29;96.63
6387;BME280;3226;42.162;24.756;2022-12-18T07:26:17;100725.22;;;8.42;95.70
6387;BME280;3226;42.162;24.756;2022-12-18T07:28:46;100726.78;;;8.14;94.35
6387;BME280;3226;42.162;24.756;2022-12-18T07:31:16;100731.81;;;8.17;94.64
6387;BME280;3226;42.162;24.756;2022-12-18T07:33:46;100731.81;;;8.17;94.07
6387;BME280;3226;42.162;24.756;2022-12-18T07:36:14;100732.56;;;8.35;93.53
6387;BME280;3226;42.162;24.756;2022-12-18T07:38:42;100727.66;;;8.29;91.52
6387;BME280;3226;42.162;24.756;2022-12-18T07:41:13;100732.97;;;8.44;91.20
6387;BME280;3226;42.162;24.756;2022-12-18T07:43:41;100740.41;;;8.51;90.59
6387;BME280;3226;42.162;24.756;2022-12-18T07:46:11;100735.00;;;8.38;90.01
6387;BME280;3226;42.162;24.756;2022-12-18T07:48:40;100735.03;;;8.22;89.93
6387;BME280;3226;42.162;24.756;2022-12-18T07:51:10;100741.56;;;8.46;90.04
6387;BME280;3226;42.162;24.756;2022-12-18T07:53:39;100750.00;;;8.51;89.66
6387;BME280;3226;42.162;24.756;2022-12-18T07:56:10;100750.38;;;8.43;89.42
6387;BME280;3226;42.162;24.756;2022-12-18T07:58:57;100752.94;;;8.61;89.23
6387;BME280;3226;42.162;24.756;2022-12-18T08:01:26;100764.94;;;8.79;88.51
6387;BME280;3226;42.162;24.756;2022-12-18T08:03:55;100766.06;;;8.59;89.13
6387;BME280;3226;42.162;24.756;2022-12-18T08:06:23;100764.13;;;8.63;88.69
6387;BME280;3226;42.162;24.756;2022-12-18T08:08:52;100770.94;;;8.65;88.44
6387;BME280;3226;42.162;24.756;2022-12-18T08:11:21;100767.94;;;8.57;87.60
6387;BME280;3226;42.162;24.756;2022-12-18T08:13:49;100775.41;;;8.63;87.84
6387;BME280;3226;42.162;24.756;2022-12-18T08:16:19;100786.00;;;8.76;87.84
6387;BME280;3226;42.162;24.756;2022-12-18T08:18:47;100785.81;;;8.79;87.13
6387;BME280;3226;42.162;24.756;2022-12-18T08:21:18;100791.19;;;8.92;86.96
6387;BME280;3226;42.162;24.756;2022-12-18T08:23:48;100791.78;;;8.97;85.70
6387;BME280;3226;42.162;24.756;2022-12-18T08:26:17;100793.56;;;8.97;85.53
6387;BME280;3226;42.162;24.756;2022-12-18T08:28:46;100789.75;;;9.03;85.40
6387;BME280;3226;42.162;24.756;2022-12-18T08:31:15;100793.75;;;8.94;85.00
6387;BME280;3226;42.162;24.756;2022-12-18T08:33:48;100787.47;;;8.96;84.92
6387;BME280;3226;42.162;24.756;2022-12-18T08:36:16;100796.38;;;9.08;84.95
6387;BME280;3226;42.162;24.756;2022-12-18T08:38:45;100794.81;;;9.06;84.94
6387;BME280;3226;42.162;24.756;2022-12-18T08:41:14;100797.25;;;9.09;84.51
6387;BME280;3226;42.162;24.756;2022-12-18T08:43:42;100800.31;;;9.16;84.31
6387;BME280;3226;42.162;24.756;2022-12-18T08:46:32;100768.78;;;8.88;84.47
6387;BME280;3226;42.162;24.756;2022-12-18T08:49:03;100793.31;;;9.16;84.26
6387;BME280;3226;42.162;24.756;2022-12-18T08:51:31;100793.06;;;9.21;83.11
6387;BME280;3226;42.162;24.756;2022-12-18T08:54:00;100791.69;;;8.99;83.57
6387;BME280;3226;42.162;24.756;2022-12-18T08:56:30;100785.16;;;8.92;83.41
6387;BME280;3226;42.162;24.756;2022-12-18T08:58:58;100780.06;;;9.05;84.50
6387;BME280;3226;42.162;24.756;2022-12-18T09:01:27;100757.22;;;8.92;83.28
6387;BME280;3226;42.162;24.756;2022-12-18T09:03:55;100781.78;;;9.35;82.65
6387;BME280;3226;42.162;24.756;2022-12-18T09:06:24;100776.91;;;9.29;82.56
6387;BME280;3226;42.162;24.756;2022-12-18T09:08:53;100788.88;;;9.33;82.45
6387;BME280;3226;42.162;24.756;2022-12-18T09:11:22;100784.56;;;9.32;83.15
6387;BME280;3226;42.162;24.756;2022-12-18T09:13:51;100785.97;;;9.23;82.41
6387;BME280;3226;42.162;24.756;2022-12-18T09:16:20;100790.72;;;9.31;82.77
6387;BME280;3226;42.162;24.756;2022-12-18T09:18:57;100775.97;;;9.15;82.78
6387;BME280;3226;42.162;24.756;2022-12-18T09:21:30;100782.44;;;9.24;82.35
6387;BME280;3226;42.162;24.756;2022-12-18T09:24:03;100778.84;;;9.10;83.06
6387;BME280;3226;42.162;24.756;2022-12-18T09:26:35;100794.56;;;9.25;82.69
6387;BME280;3226;42.162;24.756;2022-12-18T09:29:04;100791.25;;;9.07;82.75
6387;BME280;3226;42.162;24.756;2022-12-18T09:31:34;100789.78;;;9.17;82.90
6387;BME280;3226;42.162;24.756;2022-12-18T09:34:02;100792.41;;;9.32;82.54
6387;BME280;3226;42.162;24.756;2022-12-18T09:36:31;100792.06;;;9.38;82.02
6387;BME280;3226;42.162;24.756;2022-12-18T09:38:59;100787.28;;;9.30;82.07
6387;BME280;3226;42.162;24.756;2022-12-18T09:41:40;100793.63;;;9.26;81.91
6387;BME280;3226;42.162;24.756;2022-12-18T09:44:30;100788.19;;;9.15;82.51
6387;BME280;3226;42.162;24.756;2022-12-18T09:47:09;100786.41;;;9.15;82.20
6387;BME280;3226;42.162;24.756;2022-12-18T09:49:42;100786.25;;;9.18;82.54
6387;BME280;3226;42.162;24.756;2022-12-18T09:52:17;100787.38;;;9.29;82.21
6387;BME280;3226;42.162;24.756;2022-12-18T09:54:51;100788.00;;;9.18;82.37
6387;BME280;3226;42.162;24.756;2022-12-18T09:57:23;100790.59;;;9.18;81.94
6387;BME280;3226;42.162;24.756;2022-12-18T09:59:55;100787.91;;;9.19;82.29
6387;BME280;3226;42.162;24.756;2022-12-18T10:02:26;100789.91;;;9.30;82.07
6387;BME280;3226;42.162;24.756;2022-12-18T10:05:09;100789.59;;;9.20;82.41
6387;BME280;3226;42.162;24.756;2022-12-18T10:07:54;100787.03;;;9.04;82.47
6387;BME280;3226;42.162;24.756;2022-12-18T10:10:33;100789.69;;;9.19;82.45
6387;BME280;3226;42.162;24.756;2022-12-18T10:13:10;100791.47;;;9.18;81.38
6387;BME280;3226;42.162;24.756;2022-12-18T10:15:59;100786.97;;;9.06;81.55
6387;BME280;3226;42.162;24.756;2022-12-18T10:18:39;100790.50;;;9.05;81.53
6387;BME280;3226;42.162;24.756;2022-12-18T10:21:19;100789.66;;;9.04;82.10
6387;BME280;3226;42.162;24.756;2022-12-18T10:23:58;100777.31;;;8.92;81.43
6387;BME280;3226;42.162;24.756;2022-12-18T10:26:31;100800.28;;;9.01;80.71
6387;BME280;3226;42.162;24.756;2022-12-18T10:29:00;100793.81;;;8.92;80.90
6387;BME280;3226;42.162;24.756;2022-12-18T10:31:31;100795.38;;;9.11;81.51
6387;BME280;3226;42.162;24.756;2022-12-18T10:33:59;100787.66;;;9.24;80.53
6387;BME280;3226;42.162;24.756;2022-12-18T10:36:27;100789.41;;;9.23;80.54
6387;BME280;3226;42.162;24.756;2022-12-18T10:39:14;100795.44;;;9.09;80.71
6387;BME280;3226;42.162;24.756;2022-12-18T10:41:43;100793.91;;;9.21;80.37
6387;BME280;3226;42.162;24.756;2022-12-18T10:44:16;100805.78;;;9.27;79.53
6387;BME280;3226;42.162;24.756;2022-12-18T10:46:45;100804.41;;;9.05;79.48
6387;BME280;3226;42.162;24.756;2022-12-18T10:49:21;100807.69;;;9.09;79.82
6387;BME280;3226;42.162;24.756;2022-12-18T10:51:51;100797.50;;;9.04;80.65
6387;BME280;3226;42.162;24.756;2022-12-18T10:54:22;100820.19;;;9.04;80.20
6387;BME280;3226;42.162;24.756;2022-12-18T10:56:50;100820.19;;;9.04;79.38
6387;BME280;3226;42.162;24.756;2022-12-18T10:59:18;100801.16;;;9.02;80.08
6387;BME280;3226;42.162;24.756;2022-12-18T11:01:48;100824.13;;;9.11;80.16
6387;BME280;3226;42.162;24.756;2022-12-18T11:04:20;100828.78;;;9.06;80.32
6387;BME280;3226;42.162;24.756;2022-12-18T11:06:58;100829.41;;;9.09;80.73
6387;BME280;3226;42.162;24.756;2022-12-18T11:09:29;100831.31;;;8.91;81.14
6387;BME280;3226;42.162;24.756;2022-12-18T11:11:59;100829.63;;;8.90;82.13
6387;BME280;3226;42.162;24.756;2022-12-18T11:14:31;100828.47;;;8.80;81.70
6387;BME280;3226;42.162;24.756;2022-12-18T11:17:00;100829.97;;;9.00;82.14
6387;BME280;3226;42.162;24.756;2022-12-18T11:19:52;100828.03;;;9.04;81.33
6387;BME280;3226;42.162;24.756;2022-12-18T11:22:23;100840.50;;;8.82;82.93
6387;BME280;3226;42.162;24.756;2022-12-18T11:24:56;100829.41;;;8.63;84.27
6387;BME280;3226;42.162;24.756;2022-12-18T11:27:48;100846.00;;;8.62;86.03
6387;BME280;3226;42.162;24.756;2022-12-18T11:30:22;100844.84;;;8.67;87.02
6387;BME280;3226;42.162;24.756;2022-12-18T11:32:54;100854.25;;;8.86;88.19
6387;BME280;3226;42.162;24.756;2022-12-18T11:35:32;100852.69;;;8.51;90.64
6387;BME280;3226;42.162;24.756;2022-12-18T11:38:06;100855.72;;;8.26;92.67
6387;BME280;3226;42.162;24.756;2022-12-18T11:40:42;100810.78;;;7.53;95.98
6387;BME280;3226;42.162;24.756;2022-12-18T11:43:15;100861.47;;;7.65;100.00
6387;BME280;3226;42.162;24.756;2022-12-18T11:45:49;100866.09;;;7.43;100.00
6387;BME280;3226;42.162;24.756;2022-12-18T11:48:23;100870.34;;;7.26;100.00
6387;BME280;3226;42.162;24.756;2022-12-18T11:50:54;100871.50;;;7.20;100.00
6387;BME280;3226;42.162;24.756;2022-12-18T11:53:24;100819.19;;;6.88;100.00
6387;BME280;3226;42.162;24.756;2022-12-18T11:56:19;100865.91;;;7.28;100.00
6387;BME280;3226;42.162;24.756;2022-12-18T11:59:03;100861.47;;;7.30;100.00
6387;BME280;3226;42.162;24.756;2022-12-18T12:01:44;100861.47;;;7.30;100.00
6387;BME280;3226;42.162;24.756;2022-12-18T12:04:35;100864.84;;;7.32;99.82
6387;BME280;3226;42.162;24.756;2022-12-18T12:07:20;100864.69;;;7.35;99.25
6387;BME280;3226;42.162;24.756;2022-12-18T12:09:59;100866.75;;;7.46;99.08
6387;BME280;3226;42.162;24.756;2022-12-18T12:12:37;100861.25;;;7.52;97.33
6387;BME280;3226;42.162;24.756;2022-12-18T12:15:23;100860.56;;;7.49;96.13
6387;BME280;3226;42.162;24.756;2022-12-18T12:17:59;100860.91;;;7.59;95.34
6387;BME280;3226;42.162;24.756;2022-12-18T12:20:44;100855.94;;;7.72;95.60
6387;BME280;3226;42.162;24.756;2022-12-18T12:23:22;100849.72;;;7.74;94.11
6387;BME280;3226;42.162;24.756;2022-12-18T12:25:58;100851.22;;;7.96;94.53
6387;BME280;3226;42.162;24.756;2022-12-18T12:28:43;100854.34;;;8.03;95.25
6387;BME280;3226;42.162;24.756;2022-12-18T12:31:23;100861.97;;;8.23;94.82
6387;BME280;3226;42.162;24.756;2022-12-18T12:34:01;100864.22;;;8.14;94.79
6387;BME280;3226;42.162;24.756;2022-12-18T12:36:41;100871.88;;;8.17;94.95
6387;BME280;3226;42.162;24.756;2022-12-18T12:39:16;100876.09;;;8.19;93.65
6387;BME280;3226;42.162;24.756;2022-12-18T12:41:46;100884.31;;;8.12;93.61
6387;BME280;3226;42.162;24.756;2022-12-18T12:44:38;100879.91;;;7.96;93.12
6387;BME280;3226;42.162;24.756;2022-12-18T12:47:14;100874.72;;;7.96;93.89
6387;BME280;3226;42.162;24.756;2022-12-18T12:49:44;100856.69;;;7.74;93.65
6387;BME280;3226;42.162;24.756;2022-12-18T12:52:22;100892.72;;;8.01;92.62
6387;BME280;3226;42.162;24.756;2022-12-18T12:54:56;100900.78;;;7.78;92.33
6387;BME280;3226;42.162;24.756;2022-12-18T12:57:31;100904.94;;;7.82;92.63
6387;BME280;3226;42.162;24.756;2022-12-18T13:00:06;100905.63;;;7.86;93.39
6387;BME280;3226;42.162;24.756;2022-12-18T13:02:42;100909.84;;;7.71;91.29
6387;BME280;3226;42.162;24.756;2022-12-18T13:05:18;100918.13;;;7.79;90.32
6387;BME280;3226;42.162;24.756;2022-12-18T13:07:54;100918.34;;;7.75;90.29
6387;BME280;3226;42.162;24.756;2022-12-18T13:10:30;100917.69;;;7.71;89.04
6387;BME280;3226;42.162;24.756;2022-12-18T13:13:01;100926.06;;;7.78;88.71
6387;BME280;3226;42.162;24.756;2022-12-18T13:15:41;100920.91;;;7.76;88.16
6387;BME280;3226;42.162;24.756;2022-12-18T13:18:15;100933.72;;;7.81;87.34
6387;BME280;3226;42.162;24.756;2022-12-18T13:20:46;100931.25;;;7.95;86.98
6387;BME280;3226;42.162;24.756;2022-12-18T13:23:32;100933.78;;;7.97;86.50
6387;BME280;3226;42.162;24.756;2022-12-18T13:26:28;100935.47;;;7.80;84.04
6387;BME280;3226;42.162;24.756;2022-12-18T13:28:58;100920.75;;;7.62;85.05
6387;BME280;3226;42.162;24.756;2022-12-18T13:34:37;100935.94;;;7.71;83.82
6387;BME280;3226;42.162;24.756;2022-12-18T13:37:39;100936.53;;;7.76;84.43